Etusivu
METAR-TAF:

METAR-TAF

Lentoasemat :

Kairon kansainvälinen lentoasema

Kairo, Egypti

Leveyspiiri: 30-08N, Pituuspiiri: 031-24E, korkeus merenpinnasta: 64 m

Tämänhetkinen sää

Tämä raportti tehtiin 12 minuuttia sitten, kello 07.00 UTC
Tuuli 2 kn koillisesta
Lämpötila 11°C
Kosteus 82%
Ilmanpaine 1021 hPa
Näkyvyys: 4000 m
Hajanaisia pilviä 2500 ft:n korkeudessa
utua

METAR: HECA 200700Z 04002KT 4000 BR SCT025 11/08 Q1021 NOSIG

Aika: 09:12 (07:12 UTC)

Sääennuste

Tämä raportti tehtiin 2 tuntia ja 12 minuuttia sitten, kello 05.00 UTC
Ennuste voimassa 20. päivästä klo 06 UTC - 21. päivään klo 12 UTC
Tuuli 9 kn pohjoisesta/koillisesta
Näkyvyys 10 km tai enemmän
Hajanaisia pilviä 2500 ft:n korkeudessa
Ajoittain
20. päivästä klo 06 UTC - 20. päivään klo 09 UTC
Tuuli 3 kn eri suunnista
Näkyvyys: 4000 m
utua

TAF: HECA 200500Z 2006/2112 03009KT 9999 SCT025 TEMPO 2006/2009 VRB03KT 4000 BR NSC

Säähavainnot ja -ennusteet yli 4000 lentoasemalta (METAR- ja TAF-raportit).

Käytössä olevat sääasemat on merkitty karttaan keltaisilla ja punaisilla pisteillä.

Aseta hiiri pisteen päälle nähdäksesi sääaseman nimen.

Klikkaa sitten nähdäksesi säähavainnot ja -ennusteet.

Kartan vaihtaminen: klikkaa mustalla rastilla varustettuja vihreitä pisteitä, niin voit zoomata sisään; viivalla varustettua vihreää pistettä, niin voit zoomata ulos tai vihreitä nuolia, niin pääset viereisille kartoille.


METAR-TAF: